Monday, April 27, 2015, 9:33 AM EDT

KPHF, Williamsburg International Airport

Location: Newport News, VA, United States Lat: 37.133
Local Time: 9:33 AM EDT (13:33 GMT) Lon: -76.5
Time Zone: US/Eastern Elev: 42 ft

Show me the last for .
Show Decoded

2015-04-27 08:54 METAR KPHF 271254Z 34005KT 10SM CLR 14/07 A2976 RMK AO2 SLP078 T01390072 =
2015-04-27 07:54 METAR KPHF 271154Z 27004KT 10SM CLR 12/08 A2975 RMK AO2 SLP074 T01170083 10117
                 20044 53012 =
2015-04-27 06:54 METAR KPHF 271054Z 21004KT 10SM CLR 08/06 A2974 RMK AO2 SLP069 T00780056 =
2015-04-27 05:54 METAR KPHF 270954Z 34003KT 5SM BR CLR 06/04 A2973 RMK AO2 SLP066 T00610039 =
2015-04-27 05:18 METAR KPHF 270918Z 00000KT 4SM HZ CLR 06/03 A2973 RMK AO2 T00610033 =
2015-04-27 05:09 METAR KPHF 270909Z 00000KT 2 1/2SM HZ CLR 06/03 A2972 RMK AO2 T00610033 =
2015-04-27 04:54 METAR KPHF 270854Z 00000KT 3SM HZ CLR 06/03 A2972 RMK AO2 SLP063 T00610033 58006
                 =
2015-04-27 03:54 METAR KPHF 270754Z 00000KT 9SM CLR 07/04 A2973 RMK AO2 SLP065 T00670039 =
2015-04-27 02:54 METAR KPHF 270654Z 00000KT 7SM CLR 07/04 A2973 RMK AO2 SLP067 T00670039 =
2015-04-27 01:54 METAR KPHF 270554Z 00000KT 9SM CLR 08/06 A2974 RMK AO2 RAB09E27 SLP069 P0000
                 60000 T00780056 10128 20061 55003 =
2015-04-27 00:54 METAR KPHF 270454Z 00000KT 9SM CLR 07/04 A2973 RMK AO2 SLP067 T00720044
                 401780067 =
2015-04-26 23:54 METAR KPHF 270354Z 00000KT 10SM CLR 07/05 A2974 RMK AO2 SLP069 T00720050 =
2015-04-26 22:54 METAR KPHF 270254Z 00000KT 10SM CLR 08/05 A2975 RMK AO2 SLP072 T00780050 51011 =
2015-04-26 21:54 METAR KPHF 270154Z 00000KT 10SM CLR 10/06 A2974 RMK AO2 SLP071 T01000056 =
2015-04-26 20:54 METAR KPHF 270054Z 00000KT 10SM CLR 10/06 A2973 RMK AO2 SLP066 T01000056 =
2015-04-26 19:54 METAR KPHF 262354Z 00000KT 10SM CLR 13/06 A2971 RMK AO2 SLP061 T01280061 10178
                 20128 53007 =
2015-04-26 18:54 METAR KPHF 262254Z 09005KT 10SM CLR 15/04 A2971 RMK AO2 SLP059 T01500039 =
2015-04-26 17:54 METAR KPHF 262154Z 04007KT 10SM CLR 17/01 A2970 RMK AO2 SLP055 T01720011 =
2015-04-26 16:54 METAR KPHF 262054Z 04011G16KT 10SM CLR 17/02 A2969 RMK AO2 SLP054 T01720017
                 56002 =
2015-04-26 15:54 METAR KPHF 261954Z 03008KT 360V070 10SM CLR 17/03 A2969 RMK AO2 SLP054 T01720033
                 =
2015-04-26 14:54 METAR KPHF 261854Z 02014G18KT 10SM FEW070 16/04 A2969 =
2015-04-26 13:54 METAR KPHF 261754Z 35007KT 330V040 10SM FEW030 SCT065 BKN110 16/07 A2970 RMK AO2
                 SLP056 60000 T01610067 10161 20094 58005 =
2015-04-26 13:25 METAR KPHF 261725Z 35007KT 10SM SCT029 BKN065 OVC100 14/06 A2970 RMK AO2
                 T01440061 =
2015-04-26 13:17 METAR KPHF 261717Z 36006KT 10SM BKN029 BKN060 OVC100 14/06 A2970 RMK AO2
                 T01440056 =
2015-04-26 12:54 METAR KPHF 261654Z 36008KT 10SM BKN031 OVC060 14/06 A2971 RMK AO2 SLP059
                 T01440061 =
2015-04-26 12:08 METAR KPHF 261608Z 03007KT 10SM OVC030 13/06 A2971 RMK AO2 T01280056 =
2015-04-26 11:54 METAR KPHF 261554Z 36007KT 10SM BKN028 OVC060 12/06 A2972 RMK AO2 SLP062
                 T01220056 =
2015-04-26 11:52 METAR KPHF 261552Z 02006KT 10SM BKN028 OVC060 12/06 A2972 RMK AO2 =
2015-04-26 10:54 METAR KPHF 261454Z 04009KT 10SM FEW030 BKN035 OVC050 12/05 A2971 RMK AO2 SLP059
                 60000 T01220050 53010 =
2015-04-26 10:22 METAR KPHF 261422Z 06008KT 10SM FEW021 SCT027 OVC032 12/06 A2969 RMK AO2
                 T01170061 =
2015-04-26 10:01 METAR KPHF 261401Z 04007KT 10SM FEW010 BKN018 OVC026 11/07 A2969 RMK AO2
                 T01060067 =
2015-04-26 09:54 METAR KPHF 261354Z 03007KT 10SM BKN014 OVC021 10/07 A2969 RMK AO2 RAE41 SLP052
                 P0000 T01000067 =
2015-04-26 09:49 METAR KPHF 261349Z 03008KT 10SM BKN014 OVC019 10/07 A2968 RMK AO2 RAE41 P0000 =

Support USWX by starting your Amazon purchase here.